sensor_id;sensor_type;location;lat;lon;timestamp;pressure;altitude;pressure_sealevel;temperature;humidity
61384;BME280;63511;49.346;8.798;2023-04-06T00:01:54;100549.91;;;3.17;68.40
61384;BME280;63511;49.346;8.798;2023-04-06T00:04:20;100556.91;;;3.04;69.12
61384;BME280;63511;49.346;8.798;2023-04-06T00:06:47;100548.81;;;3.07;69.71
61384;BME280;63511;49.346;8.798;2023-04-06T00:09:13;100545.78;;;3.09;69.26
61384;BME280;63511;49.346;8.798;2023-04-06T00:11:40;100554.94;;;2.93;69.76
61384;BME280;63511;49.346;8.798;2023-04-06T00:14:06;100546.66;;;3.10;68.43
61384;BME280;63511;49.346;8.798;2023-04-06T00:16:33;100543.19;;;3.25;67.65
61384;BME280;63511;49.346;8.798;2023-04-06T00:19:01;100539.63;;;3.23;67.95
61384;BME280;63511;49.346;8.798;2023-04-06T00:21:27;100539.72;;;2.98;68.85
61384;BME280;63511;49.346;8.798;2023-04-06T00:23:53;100536.88;;;2.87;69.35
61384;BME280;63511;49.346;8.798;2023-04-06T00:26:20;100548.66;;;2.64;71.30
61384;BME280;63511;49.346;8.798;2023-04-06T00:28:46;100555.31;;;2.80;70.91
61384;BME280;63511;49.346;8.798;2023-04-06T00:31:15;100553.69;;;2.72;69.50
61384;BME280;63511;49.346;8.798;2023-04-06T00:33:41;100549.97;;;2.93;69.41
61384;BME280;63511;49.346;8.798;2023-04-06T00:36:09;100546.94;;;3.13;68.90
61384;BME280;63511;49.346;8.798;2023-04-06T00:38:35;100543.00;;;3.15;68.95
61384;BME280;63511;49.346;8.798;2023-04-06T00:41:02;100539.31;;;3.11;69.43
61384;BME280;63511;49.346;8.798;2023-04-06T00:43:29;100544.00;;;3.08;69.47
61384;BME280;63511;49.346;8.798;2023-04-06T00:45:56;100539.31;;;3.11;69.76
61384;BME280;63511;49.346;8.798;2023-04-06T00:48:22;100540.53;;;3.32;69.00
61384;BME280;63511;49.346;8.798;2023-04-06T00:50:48;100533.66;;;3.29;68.98
61384;BME280;63511;49.346;8.798;2023-04-06T00:53:16;100527.50;;;3.43;68.67
61384;BME280;63511;49.346;8.798;2023-04-06T00:55:43;100531.75;;;3.35;69.97
61384;BME280;63511;49.346;8.798;2023-04-06T00:58:10;100526.22;;;3.55;68.80
61384;BME280;63511;49.346;8.798;2023-04-06T01:00:36;100530.75;;;3.51;69.12
61384;BME280;63511;49.346;8.798;2023-04-06T01:03:03;100522.09;;;3.47;68.53
61384;BME280;63511;49.346;8.798;2023-04-06T01:05:32;100525.03;;;3.60;68.25
61384;BME280;63511;49.346;8.798;2023-04-06T01:07:59;100525.88;;;3.26;70.99
61384;BME280;63511;49.346;8.798;2023-04-06T01:10:28;100525.72;;;3.42;70.18
61384;BME280;63511;49.346;8.798;2023-04-06T01:12:54;100521.66;;;3.68;69.01
61384;BME280;63511;49.346;8.798;2023-04-06T01:15:21;100520.75;;;3.59;69.20
61384;BME280;63511;49.346;8.798;2023-04-06T01:17:47;100514.59;;;3.56;69.52
61384;BME280;63511;49.346;8.798;2023-04-06T01:20:14;100516.34;;;3.39;70.08
61384;BME280;63511;49.346;8.798;2023-04-06T01:22:42;100510.63;;;3.58;70.33
61384;BME280;63511;49.346;8.798;2023-04-06T01:25:09;100511.09;;;3.71;69.37
61384;BME280;63511;49.346;8.798;2023-04-06T01:27:35;100510.66;;;3.75;68.68
61384;BME280;63511;49.346;8.798;2023-04-06T01:30:02;100499.78;;;3.74;68.71
61384;BME280;63511;49.346;8.798;2023-04-06T01:32:28;100504.03;;;3.75;68.96
61384;BME280;63511;49.346;8.798;2023-04-06T01:34:55;100506.53;;;3.67;68.87
61384;BME280;63511;49.346;8.798;2023-04-06T01:37:21;100501.38;;;3.31;71.22
61384;BME280;63511;49.346;8.798;2023-04-06T01:39:49;100501.66;;;3.42;71.15
61384;BME280;63511;49.346;8.798;2023-04-06T01:42:16;100501.56;;;3.67;69.41
61384;BME280;63511;49.346;8.798;2023-04-06T01:44:42;100503.16;;;3.66;69.60
61384;BME280;63511;49.346;8.798;2023-04-06T01:47:09;100497.16;;;3.73;68.62
61384;BME280;63511;49.346;8.798;2023-04-06T01:49:35;100494.03;;;3.84;67.84
61384;BME280;63511;49.346;8.798;2023-04-06T01:52:01;100490.34;;;3.89;67.99
61384;BME280;63511;49.346;8.798;2023-04-06T01:54:28;100499.78;;;3.83;68.22
61384;BME280;63511;49.346;8.798;2023-04-06T01:56:56;100498.44;;;4.04;67.41
61384;BME280;63511;49.346;8.798;2023-04-06T01:59:25;100496.25;;;3.98;67.82
61384;BME280;63511;49.346;8.798;2023-04-06T02:01:51;100490.66;;;4.01;67.55
61384;BME280;63511;49.346;8.798;2023-04-06T02:04:18;100495.06;;;3.86;68.36
61384;BME280;63511;49.346;8.798;2023-04-06T02:06:44;100490.66;;;3.92;67.85
61384;BME280;63511;49.346;8.798;2023-04-06T02:09:11;100495.94;;;3.95;67.47
61384;BME280;63511;49.346;8.798;2023-04-06T02:11:37;100492.56;;;3.60;70.20
61384;BME280;63511;49.346;8.798;2023-04-06T02:14:05;100493.44;;;3.35;70.70
61384;BME280;63511;49.346;8.798;2023-04-06T02:16:31;100493.31;;;3.51;69.52
61384;BME280;63511;49.346;8.798;2023-04-06T02:18:58;100493.44;;;3.69;68.45
61384;BME280;63511;49.346;8.798;2023-04-06T02:21:24;100489.03;;;3.58;68.77
61384;BME280;63511;49.346;8.798;2023-04-06T02:23:51;100485.78;;;3.42;69.11
61384;BME280;63511;49.346;8.798;2023-04-06T02:26:17;100486.06;;;3.19;70.57
61384;BME280;63511;49.346;8.798;2023-04-06T02:28:43;100486.63;;;3.17;70.62
61384;BME280;63511;49.346;8.798;2023-04-06T02:31:11;100486.50;;;3.15;70.29
61384;BME280;63511;49.346;8.798;2023-04-06T02:33:39;100488.13;;;3.15;69.51
61384;BME280;63511;49.346;8.798;2023-04-06T02:36:06;100491.03;;;3.11;70.20
61384;BME280;63511;49.346;8.798;2023-04-06T02:38:32;100488.69;;;3.12;69.58
61384;BME280;63511;49.346;8.798;2023-04-06T02:40:59;100481.31;;;2.96;70.24
61384;BME280;63511;49.346;8.798;2023-04-06T02:43:25;100483.41;;;3.09;70.20
61384;BME280;63511;49.346;8.798;2023-04-06T02:45:52;100484.53;;;2.95;70.80
61384;BME280;63511;49.346;8.798;2023-04-06T02:48:20;100483.88;;;2.81;71.14
61384;BME280;63511;49.346;8.798;2023-04-06T02:50:46;100482.44;;;2.83;71.35
61384;BME280;63511;49.346;8.798;2023-04-06T02:53:13;100485.13;;;2.93;70.37
61384;BME280;63511;49.346;8.798;2023-04-06T02:55:39;100478.16;;;2.73;70.99
61384;BME280;63511;49.346;8.798;2023-04-06T02:58:06;100480.41;;;2.54;71.62
61384;BME280;63511;49.346;8.798;2023-04-06T03:00:32;100477.44;;;2.74;71.52
61384;BME280;63511;49.346;8.798;2023-04-06T03:02:59;100472.72;;;2.69;70.74
61384;BME280;63511;49.346;8.798;2023-04-06T03:05:26;100481.22;;;2.38;73.41
61384;BME280;63511;49.346;8.798;2023-04-06T03:07:53;100480.50;;;2.72;71.45
61384;BME280;63511;49.346;8.798;2023-04-06T03:10:19;100476.75;;;2.60;71.79
61384;BME280;63511;49.346;8.798;2023-04-06T03:12:46;100478.59;;;2.78;70.89
61384;BME280;63511;49.346;8.798;2023-04-06T03:15:12;100475.66;;;2.73;70.75
61384;BME280;63511;49.346;8.798;2023-04-06T03:17:38;100472.09;;;2.63;71.44
61384;BME280;63511;49.346;8.798;2023-04-06T03:20:05;100479.75;;;2.64;71.09
61384;BME280;63511;49.346;8.798;2023-04-06T03:22:33;100476.03;;;2.61;71.32
61384;BME280;63511;49.346;8.798;2023-04-06T03:24:59;100477.66;;;2.60;70.88
61384;BME280;63511;49.346;8.798;2023-04-06T03:27:26;100479.31;;;2.44;71.48
61384;BME280;63511;49.346;8.798;2023-04-06T03:29:52;100482.31;;;2.48;71.09
61384;BME280;63511;49.346;8.798;2023-04-06T03:32:19;100481.44;;;2.48;70.83
61384;BME280;63511;49.346;8.798;2023-04-06T03:34:45;100486.78;;;2.35;72.02
61384;BME280;63511;49.346;8.798;2023-04-06T03:37:12;100482.78;;;2.62;70.68
61384;BME280;63511;49.346;8.798;2023-04-06T03:39:40;100486.09;;;2.78;68.65
61384;BME280;63511;49.346;8.798;2023-04-06T03:42:06;100494.03;;;2.49;70.42
61384;BME280;63511;49.346;8.798;2023-04-06T03:44:32;100495.13;;;2.36;71.15
61384;BME280;63511;49.346;8.798;2023-04-06T03:46:59;100497.38;;;2.17;71.35
61384;BME280;63511;49.346;8.798;2023-04-06T03:49:26;100496.53;;;2.25;71.44
61384;BME280;63511;49.346;8.798;2023-04-06T03:51:53;100498.19;;;2.09;72.46
61384;BME280;63511;49.346;8.798;2023-04-06T03:54:19;100498.56;;;2.21;71.85
61384;BME280;63511;49.346;8.798;2023-04-06T03:56:47;100499.19;;;2.27;71.10
61384;BME280;63511;49.346;8.798;2023-04-06T03:59:13;100500.06;;;2.27;71.68
61384;BME280;63511;49.346;8.798;2023-04-06T04:01:40;100512.63;;;2.20;71.78
61384;BME280;63511;49.346;8.798;2023-04-06T04:04:06;100506.25;;;2.31;71.92
61384;BME280;63511;49.346;8.798;2023-04-06T04:06:33;100505.88;;;2.19;70.81
61384;BME280;63511;49.346;8.798;2023-04-06T04:09:01;100500.69;;;2.09;70.82
61384;BME280;63511;49.346;8.798;2023-04-06T04:11:30;100508.28;;;1.86;73.45
61384;BME280;63511;49.346;8.798;2023-04-06T04:13:58;100498.91;;;2.08;72.30
61384;BME280;63511;49.346;8.798;2023-04-06T04:16:25;100506.84;;;2.12;71.54
61384;BME280;63511;49.346;8.798;2023-04-06T04:18:52;100510.13;;;2.20;70.46
61384;BME280;63511;49.346;8.798;2023-04-06T04:24:21;100512.06;;;2.23;70.25
61384;BME280;63511;49.346;8.798;2023-04-06T04:26:47;100515.28;;;2.22;70.44
61384;BME280;63511;49.346;8.798;2023-04-06T04:29:15;100514.22;;;2.20;70.41
61384;BME280;63511;49.346;8.798;2023-04-06T04:31:45;100514.59;;;2.07;70.76
61384;BME280;63511;49.346;8.798;2023-04-06T04:34:11;100514.00;;;2.09;70.88
61384;BME280;63511;49.346;8.798;2023-04-06T04:36:38;100514.75;;;1.93;72.01
61384;BME280;63511;49.346;8.798;2023-04-06T04:39:07;100524.38;;;1.65;73.74
61384;BME280;63511;49.346;8.798;2023-04-06T04:41:33;100519.38;;;1.81;71.89
61384;BME280;63511;49.346;8.798;2023-04-06T04:44:00;100529.81;;;1.86;72.13
61384;BME280;63511;49.346;8.798;2023-04-06T04:46:28;100531.34;;;1.30;73.24
61384;BME280;63511;49.346;8.798;2023-04-06T04:48:55;100525.97;;;1.65;72.09
61384;BME280;63511;49.346;8.798;2023-04-06T04:51:21;100523.16;;;1.62;72.25
61384;BME280;63511;49.346;8.798;2023-04-06T04:53:49;100527.81;;;1.75;72.21
61384;BME280;63511;49.346;8.798;2023-04-06T04:56:16;100533.78;;;1.92;70.89
61384;BME280;63511;49.346;8.798;2023-04-06T04:58:42;100535.28;;;1.75;71.73
61384;BME280;63511;49.346;8.798;2023-04-06T05:01:10;100525.31;;;1.75;71.79
61384;BME280;63511;49.346;8.798;2023-04-06T05:03:38;100536.94;;;1.83;71.52
61384;BME280;63511;49.346;8.798;2023-04-06T05:06:05;100539.91;;;1.87;71.13
61384;BME280;63511;49.346;8.798;2023-04-06T05:08:31;100539.53;;;1.76;72.69
61384;BME280;63511;49.346;8.798;2023-04-06T05:10:58;100536.22;;;1.84;72.40
61384;BME280;63511;49.346;8.798;2023-04-06T05:13:24;100542.50;;;1.80;71.74
61384;BME280;63511;49.346;8.798;2023-04-06T05:15:51;100540.88;;;1.96;71.35
61384;BME280;63511;49.346;8.798;2023-04-06T05:18:20;100553.34;;;1.96;71.85
61384;BME280;63511;49.346;8.798;2023-04-06T05:20:48;100555.88;;;2.05;71.54
61384;BME280;63511;49.346;8.798;2023-04-06T05:23:16;100553.00;;;1.93;71.81
61384;BME280;63511;49.346;8.798;2023-04-06T05:25:43;100551.41;;;1.62;72.96
61384;BME280;63511;49.346;8.798;2023-04-06T05:28:09;100544.56;;;2.00;72.05
61384;BME280;63511;49.346;8.798;2023-04-06T05:30:39;100553.56;;;2.06;71.23
61384;BME280;63511;49.346;8.798;2023-04-06T05:33:05;100555.44;;;2.25;70.47
61384;BME280;63511;49.346;8.798;2023-04-06T05:35:32;100552.28;;;2.34;70.04
61384;BME280;63511;49.346;8.798;2023-04-06T05:38:00;100554.03;;;2.35;70.38
61384;BME280;63511;49.346;8.798;2023-04-06T05:40:26;100550.50;;;2.33;70.27
61384;BME280;63511;49.346;8.798;2023-04-06T05:42:53;100558.34;;;2.21;71.26
61384;BME280;63511;49.346;8.798;2023-04-06T05:45:20;100554.63;;;2.57;69.80
61384;BME280;63511;49.346;8.798;2023-04-06T05:47:46;100557.13;;;2.57;69.91
61384;BME280;63511;49.346;8.798;2023-04-06T05:50:14;100559.19;;;2.61;69.74
61384;BME280;63511;49.346;8.798;2023-04-06T05:52:41;100557.03;;;2.64;69.94
61384;BME280;63511;49.346;8.798;2023-04-06T05:55:11;100551.63;;;2.68;69.90
61384;BME280;63511;49.346;8.798;2023-04-06T05:57:38;100561.00;;;2.46;71.85
61384;BME280;63511;49.346;8.798;2023-04-06T06:00:05;100557.78;;;2.72;70.63
61384;BME280;63511;49.346;8.798;2023-04-06T06:02:34;100559.84;;;2.76;70.26
61384;BME280;63511;49.346;8.798;2023-04-06T06:05:01;100552.16;;;2.66;71.59
61384;BME280;63511;49.346;8.798;2023-04-06T06:07:27;100559.63;;;2.90;71.43
61384;BME280;63511;49.346;8.798;2023-04-06T06:09:56;100551.06;;;3.12;69.49
61384;BME280;63511;49.346;8.798;2023-04-06T06:12:26;100549.28;;;3.11;69.39
61384;BME280;63511;49.346;8.798;2023-04-06T06:14:53;100562.25;;;2.83;70.81
61384;BME280;63511;49.346;8.798;2023-04-06T06:17:20;100554.94;;;2.93;71.90
61384;BME280;63511;49.346;8.798;2023-04-06T06:19:47;100553.13;;;3.16;71.35
61384;BME280;63511;49.346;8.798;2023-04-06T06:22:16;100557.44;;;3.34;69.91
61384;BME280;63511;49.346;8.798;2023-04-06T06:24:43;100557.09;;;3.73;69.27
61384;BME280;63511;49.346;8.798;2023-04-06T06:27:10;100560.28;;;3.55;69.70
61384;BME280;63511;49.346;8.798;2023-04-06T06:29:37;100555.31;;;3.72;69.21
61384;BME280;63511;49.346;8.798;2023-04-06T06:32:07;100553.16;;;3.25;70.67
61384;BME280;63511;49.346;8.798;2023-04-06T06:34:34;100554.69;;;3.49;69.48
61384;BME280;63511;49.346;8.798;2023-04-06T06:37:01;100564.53;;;3.64;68.55
61384;BME280;63511;49.346;8.798;2023-04-06T06:39:27;100562.59;;;3.36;69.66
61384;BME280;63511;49.346;8.798;2023-04-06T06:41:54;100567.41;;;3.34;70.72
61384;BME280;63511;49.346;8.798;2023-04-06T06:44:21;100559.81;;;3.50;70.10
61384;BME280;63511;49.346;8.798;2023-04-06T06:46:49;100562.22;;;3.66;69.37
61384;BME280;63511;49.346;8.798;2023-04-06T06:49:16;100572.81;;;4.06;67.81
61384;BME280;63511;49.346;8.798;2023-04-06T06:51:42;100571.47;;;4.10;67.74
61384;BME280;63511;49.346;8.798;2023-04-06T06:54:09;100555.00;;;4.38;67.01
61384;BME280;63511;49.346;8.798;2023-04-06T06:56:35;100557.47;;;4.55;66.91
61384;BME280;63511;49.346;8.798;2023-04-06T06:59:03;100556.59;;;4.37;65.97
61384;BME280;63511;49.346;8.798;2023-04-06T07:01:30;100570.75;;;4.02;66.27
61384;BME280;63511;49.346;8.798;2023-04-06T07:03:58;100557.97;;;4.08;66.09
61384;BME280;63511;49.346;8.798;2023-04-06T07:06:24;100557.94;;;4.25;65.13
61384;BME280;63511;49.346;8.798;2023-04-06T07:08:51;100550.16;;;4.39;65.41
61384;BME280;63511;49.346;8.798;2023-04-06T07:11:17;100557.47;;;4.55;64.92
61384;BME280;63511;49.346;8.798;2023-04-06T07:13:44;100563.22;;;4.54;64.87
61384;BME280;63511;49.346;8.798;2023-04-06T07:16:10;100562.41;;;4.72;65.14
61384;BME280;63511;49.346;8.798;2023-04-06T07:18:37;100554.13;;;4.90;63.48
61384;BME280;63511;49.346;8.798;2023-04-06T07:21:05;100558.88;;;4.79;64.91
61384;BME280;63511;49.346;8.798;2023-04-06T07:23:32;100558.66;;;4.94;64.33
61384;BME280;63511;49.346;8.798;2023-04-06T07:25:59;100554.16;;;5.18;63.58
61384;BME280;63511;49.346;8.798;2023-04-06T07:28:25;100548.28;;;5.63;62.88
61384;BME280;63511;49.346;8.798;2023-04-06T07:30:51;100557.03;;;5.58;62.49
61384;BME280;63511;49.346;8.798;2023-04-06T07:33:19;100553.84;;;5.23;62.77
61384;BME280;63511;49.346;8.798;2023-04-06T07:35:46;100549.63;;;5.87;63.60
61384;BME280;63511;49.346;8.798;2023-04-06T07:38:14;100560.81;;;6.09;63.14
61384;BME280;63511;49.346;8.798;2023-04-06T07:40:40;100553.69;;;6.43;60.89
61384;BME280;63511;49.346;8.798;2023-04-06T07:43:07;100544.44;;;6.80;60.63
61384;BME280;63511;49.346;8.798;2023-04-06T07:45:33;100546.00;;;6.89;60.08
61384;BME280;63511;49.346;8.798;2023-04-06T07:48:00;100545.03;;;7.17;61.03
61384;BME280;63511;49.346;8.798;2023-04-06T07:50:26;100549.13;;;6.96;60.76
61384;BME280;63511;49.346;8.798;2023-04-06T07:52:56;100546.41;;;7.13;59.09
61384;BME280;63511;49.346;8.798;2023-04-06T07:55:25;100541.94;;;6.80;59.68
61384;BME280;63511;49.346;8.798;2023-04-06T07:57:51;100544.84;;;6.95;59.94
61384;BME280;63511;49.346;8.798;2023-04-06T08:00:19;100538.53;;;7.29;59.04
61384;BME280;63511;49.346;8.798;2023-04-06T08:02:45;100534.13;;;7.47;59.04
61384;BME280;63511;49.346;8.798;2023-04-06T08:05:12;100538.16;;;7.65;56.97
61384;BME280;63511;49.346;8.798;2023-04-06T08:07:38;100530.19;;;8.01;56.91
61384;BME280;63511;49.346;8.798;2023-04-06T08:10:05;100531.19;;;8.03;56.53
61384;BME280;63511;49.346;8.798;2023-04-06T08:12:34;100533.25;;;7.77;56.58
61384;BME280;63511;49.346;8.798;2023-04-06T08:15:00;100535.38;;;7.82;55.27
61384;BME280;63511;49.346;8.798;2023-04-06T08:17:28;100528.16;;;8.07;57.36
61384;BME280;63511;49.346;8.798;2023-04-06T08:19:56;100521.84;;;8.12;51.87
61384;BME280;63511;49.346;8.798;2023-04-06T08:22:22;100525.41;;;8.46;52.82
61384;BME280;63511;49.346;8.798;2023-04-06T08:24:50;100524.44;;;8.87;52.26
61384;BME280;63511;49.346;8.798;2023-04-06T08:27:16;100525.78;;;9.16;51.94
61384;BME280;63511;49.346;8.798;2023-04-06T08:29:44;100516.28;;;9.23;50.00
61384;BME280;63511;49.346;8.798;2023-04-06T08:32:11;100522.28;;;8.92;50.68
61384;BME280;63511;49.346;8.798;2023-04-06T08:34:38;100518.78;;;9.12;50.56
61384;BME280;63511;49.346;8.798;2023-04-06T08:37:05;100517.56;;;9.07;51.51
61384;BME280;63511;49.346;8.798;2023-04-06T08:39:32;100517.34;;;9.15;51.58
61384;BME280;63511;49.346;8.798;2023-04-06T08:41:59;100515.84;;;9.29;48.71
61384;BME280;63511;49.346;8.798;2023-04-06T08:44:28;100511.91;;;9.66;48.20
61384;BME280;63511;49.346;8.798;2023-04-06T08:46:56;100511.59;;;9.96;49.82
61384;BME280;63511;49.346;8.798;2023-04-06T08:49:23;100502.44;;;10.20;47.10
61384;BME280;63511;49.346;8.798;2023-04-06T08:51:50;100504.28;;;10.22;47.43
61384;BME280;63511;49.346;8.798;2023-04-06T08:54:17;100502.63;;;10.23;48.96
61384;BME280;63511;49.346;8.798;2023-04-06T08:56:43;100500.44;;;10.04;47.08
61384;BME280;63511;49.346;8.798;2023-04-06T08:59:10;100505.72;;;10.31;47.03
61384;BME280;63511;49.346;8.798;2023-04-06T09:01:38;100502.81;;;10.49;46.84
61384;BME280;63511;49.346;8.798;2023-04-06T09:04:07;100502.81;;;10.61;48.68
61384;BME280;63511;49.346;8.798;2023-04-06T09:06:36;100505.22;;;10.59;47.03
61384;BME280;63511;49.346;8.798;2023-04-06T09:09:03;100502.63;;;10.46;47.51
61384;BME280;63511;49.346;8.798;2023-04-06T09:11:40;100501.69;;;10.69;47.85
61384;BME280;63511;49.346;8.798;2023-04-06T09:14:07;100503.69;;;10.61;45.26
61384;BME280;63511;49.346;8.798;2023-04-06T09:16:38;100504.19;;;10.81;47.24
61384;BME280;63511;49.346;8.798;2023-04-06T09:19:04;100503.16;;;11.15;47.67
61384;BME280;63511;49.346;8.798;2023-04-06T09:21:33;100498.66;;;11.11;47.31
61384;BME280;63511;49.346;8.798;2023-04-06T09:23:59;100491.75;;;11.33;45.64
61384;BME280;63511;49.346;8.798;2023-04-06T09:26:26;100488.00;;;11.53;47.16
61384;BME280;63511;49.346;8.798;2023-04-06T09:28:53;100490.72;;;11.56;45.97
61384;BME280;63511;49.346;8.798;2023-04-06T09:31:21;100497.13;;;11.89;45.33
61384;BME280;63511;49.346;8.798;2023-04-06T09:33:48;100493.00;;;11.40;46.82
61384;BME280;63511;49.346;8.798;2023-04-06T09:36:14;100491.97;;;11.87;46.74
61384;BME280;63511;49.346;8.798;2023-04-06T09:38:52;100479.25;;;11.61;45.70
61384;BME280;63511;49.346;8.798;2023-04-06T09:41:20;100487.81;;;11.63;45.78
61384;BME280;63511;49.346;8.798;2023-04-06T09:43:47;100487.94;;;11.65;44.84
61384;BME280;63511;49.346;8.798;2023-04-06T09:46:14;100484.41;;;11.63;45.33
61384;BME280;63511;49.346;8.798;2023-04-06T09:48:41;100484.84;;;12.34;45.22
61384;BME280;63511;49.346;8.798;2023-04-06T09:51:07;100481.19;;;11.90;45.16
61384;BME280;63511;49.346;8.798;2023-04-06T09:53:37;100476.34;;;12.47;44.74
61384;BME280;63511;49.346;8.798;2023-04-06T09:56:06;100479.03;;;12.22;44.03
61384;BME280;63511;49.346;8.798;2023-04-06T09:58:37;100474.53;;;12.31;45.13
61384;BME280;63511;49.346;8.798;2023-04-06T10:01:08;100471.31;;;12.08;44.04
61384;BME280;63511;49.346;8.798;2023-04-06T10:03:36;100470.75;;;12.66;45.56
61384;BME280;63511;49.346;8.798;2023-04-06T10:06:08;100472.22;;;12.62;45.01
61384;BME280;63511;49.346;8.798;2023-04-06T10:08:37;100468.34;;;12.82;43.32
61384;BME280;63511;49.346;8.798;2023-04-06T10:11:06;100462.75;;;12.60;43.88
61384;BME280;63511;49.346;8.798;2023-04-06T10:13:34;100462.59;;;13.12;44.38
61384;BME280;63511;49.346;8.798;2023-04-06T10:16:00;100459.88;;;13.09;44.98
61384;BME280;63511;49.346;8.798;2023-04-06T10:18:27;100459.91;;;12.96;43.76
61384;BME280;63511;49.346;8.798;2023-04-06T10:20:54;100456.34;;;13.35;42.99
61384;BME280;63511;49.346;8.798;2023-04-06T10:23:26;100450.19;;;13.17;43.45
61384;BME280;63511;49.346;8.798;2023-04-06T10:25:56;100449.59;;;13.65;42.84
61384;BME280;63511;49.346;8.798;2023-04-06T10:28:24;100455.44;;;13.93;41.99
61384;BME280;63511;49.346;8.798;2023-04-06T10:30:56;100457.22;;;14.11;41.82
61384;BME280;63511;49.346;8.798;2023-04-06T10:33:23;100440.94;;;13.61;39.95
61384;BME280;63511;49.346;8.798;2023-04-06T10:35:49;100445.06;;;13.59;42.35
61384;BME280;63511;49.346;8.798;2023-04-06T10:38:15;100445.69;;;14.32;41.27
61384;BME280;63511;49.346;8.798;2023-04-06T10:40:46;100440.81;;;14.51;42.27
61384;BME280;63511;49.346;8.798;2023-04-06T10:43:17;100443.47;;;14.69;41.83
61384;BME280;63511;49.346;8.798;2023-04-06T10:45:45;100435.59;;;14.48;39.87
61384;BME280;63511;49.346;8.798;2023-04-06T10:48:20;100437.16;;;14.15;39.45
61384;BME280;63511;49.346;8.798;2023-04-06T10:50:47;100436.88;;;14.40;38.42
61384;BME280;63511;49.346;8.798;2023-04-06T10:53:20;100423.22;;;14.86;38.79
61384;BME280;63511;49.346;8.798;2023-04-06T10:55:46;100422.69;;;14.76;41.21
61384;BME280;63511;49.346;8.798;2023-04-06T10:58:13;100425.09;;;15.41;39.23
61384;BME280;63511;49.346;8.798;2023-04-06T11:00:43;100424.81;;;14.84;37.94
61384;BME280;63511;49.346;8.798;2023-04-06T11:03:11;100438.13;;;14.48;38.85
61384;BME280;63511;49.346;8.798;2023-04-06T11:05:38;100427.97;;;14.97;36.69
61384;BME280;63511;49.346;8.798;2023-04-06T11:08:05;100422.44;;;15.21;36.06
61384;BME280;63511;49.346;8.798;2023-04-06T11:10:38;100419.16;;;15.06;38.00
61384;BME280;63511;49.346;8.798;2023-04-06T13:56:04;100280.91;;;16.93;29.24
61384;BME280;63511;49.346;8.798;2023-04-06T13:58:30;100279.78;;;16.66;30.23
61384;BME280;63511;49.346;8.798;2023-04-06T14:01:01;100284.94;;;16.68;33.33
61384;BME280;63511;49.346;8.798;2023-04-06T14:21:46;100277.34;;;17.11;30.45
61384;BME280;63511;49.346;8.798;2023-04-06T14:24:14;100270.88;;;17.19;30.41
61384;BME280;63511;49.346;8.798;2023-04-06T14:26:41;100268.63;;;16.64;29.49
61384;BME280;63511;49.346;8.798;2023-04-06T15:02:41;100263.16;;;15.97;30.53
61384;BME280;63511;49.346;8.798;2023-04-06T15:05:08;100266.38;;;15.74;28.52
61384;BME280;63511;49.346;8.798;2023-04-06T15:07:36;100263.50;;;16.24;30.19
61384;BME280;63511;49.346;8.798;2023-04-06T15:10:02;100266.84;;;15.85;28.17
61384;BME280;63511;49.346;8.798;2023-04-06T15:12:29;100265.22;;;15.87;29.44
61384;BME280;63511;49.346;8.798;2023-04-06T15:14:55;100267.47;;;15.61;29.53
61384;BME280;63511;49.346;8.798;2023-04-06T15:17:21;100271.97;;;15.67;29.40
61384;BME280;63511;49.346;8.798;2023-04-06T15:19:50;100264.34;;;15.86;28.76
61384;BME280;63511;49.346;8.798;2023-04-06T15:22:18;100262.00;;;15.91;28.64
61384;BME280;63511;49.346;8.798;2023-04-06T15:24:44;100262.75;;;15.88;28.99
61384;BME280;63511;49.346;8.798;2023-04-06T15:27:11;100260.09;;;15.85;31.16
61384;BME280;63511;49.346;8.798;2023-04-06T15:29:37;100252.69;;;15.91;30.70
61384;BME280;63511;49.346;8.798;2023-04-06T15:32:04;100246.00;;;15.93;28.99
61384;BME280;63511;49.346;8.798;2023-04-06T15:34:31;100256.97;;;15.73;29.36
61384;BME280;63511;49.346;8.798;2023-04-06T15:37:00;100255.31;;;15.56;29.47
61384;BME280;63511;49.346;8.798;2023-04-06T15:39:28;100262.91;;;15.54;30.09
61384;BME280;63511;49.346;8.798;2023-04-06T15:41:55;100263.63;;;15.52;29.25
61384;BME280;63511;49.346;8.798;2023-04-06T15:44:22;100259.97;;;15.47;29.56
61384;BME280;63511;49.346;8.798;2023-04-06T15:46:49;100255.19;;;15.53;27.47
61384;BME280;63511;49.346;8.798;2023-04-06T15:49:15;100259.53;;;15.55;29.12
61384;BME280;63511;49.346;8.798;2023-04-06T15:51:42;100258.97;;;15.43;28.05
61384;BME280;63511;49.346;8.798;2023-04-06T15:54:10;100265.66;;;15.41;28.77
61384;BME280;63511;49.346;8.798;2023-04-06T15:56:36;100261.81;;;15.31;28.63
61384;BME280;63511;49.346;8.798;2023-04-06T15:59:03;100255.59;;;15.44;28.32
61384;BME280;63511;49.346;8.798;2023-04-06T16:01:29;100247.34;;;15.30;28.24
61384;BME280;63511;49.346;8.798;2023-04-06T16:03:56;100256.22;;;15.39;27.65
61384;BME280;63511;49.346;8.798;2023-04-06T16:06:22;100254.00;;;15.28;27.79
61384;BME280;63511;49.346;8.798;2023-04-06T16:08:49;100253.59;;;15.19;26.98
61384;BME280;63511;49.346;8.798;2023-04-06T16:11:17;100247.97;;;15.44;27.15
61384;BME280;63511;49.346;8.798;2023-04-06T16:13:43;100253.22;;;15.29;29.33
61384;BME280;63511;49.346;8.798;2023-04-06T16:16:10;100247.16;;;15.45;28.61
61384;BME280;63511;49.346;8.798;2023-04-06T16:18:36;100249.59;;;15.42;28.49
61384;BME280;63511;49.346;8.798;2023-04-06T16:21:02;100247.84;;;15.23;28.76
61384;BME280;63511;49.346;8.798;2023-04-06T16:23:29;100250.13;;;15.53;28.67
61384;BME280;63511;49.346;8.798;2023-04-06T16:25:55;100248.38;;;15.16;29.85
61384;BME280;63511;49.346;8.798;2023-04-06T16:28:24;100252.88;;;15.22;29.53
61384;BME280;63511;49.346;8.798;2023-04-06T16:30:50;100249.25;;;15.17;29.08
61384;BME280;63511;49.346;8.798;2023-04-06T16:33:17;100250.84;;;15.15;29.46
61384;BME280;63511;49.346;8.798;2023-04-06T16:35:45;100254.59;;;15.41;28.75